sensor_id;sensor_type;location;lat;lon;timestamp;P1;durP1;ratioP1;P2;durP2;ratioP2
69392;SDS011;56582;44.624;20.378;2023-07-13T00:01:42;14.02;;;8.00;;
69392;SDS011;56582;44.624;20.378;2023-07-13T00:04:08;13.60;;;7.83;;
69392;SDS011;56582;44.624;20.378;2023-07-13T00:06:34;11.85;;;7.70;;
69392;SDS011;56582;44.624;20.378;2023-07-13T00:09:00;19.65;;;7.80;;
69392;SDS011;56582;44.624;20.378;2023-07-13T00:11:26;13.10;;;7.50;;
69392;SDS011;56582;44.624;20.378;2023-07-13T00:13:52;13.35;;;7.38;;
69392;SDS011;56582;44.624;20.378;2023-07-13T00:16:17;15.23;;;6.80;;
69392;SDS011;56582;44.624;20.378;2023-07-13T00:18:44;12.65;;;7.20;;
69392;SDS011;56582;44.624;20.378;2023-07-13T00:21:10;12.73;;;7.15;;
69392;SDS011;56582;44.624;20.378;2023-07-13T00:23:36;12.60;;;7.80;;
69392;SDS011;56582;44.624;20.378;2023-07-13T00:26:04;17.08;;;8.15;;
69392;SDS011;56582;44.624;20.378;2023-07-13T00:28:31;12.07;;;8.30;;
69392;SDS011;56582;44.624;20.378;2023-07-13T00:30:57;12.35;;;7.35;;
69392;SDS011;56582;44.624;20.378;2023-07-13T00:33:22;12.43;;;8.07;;
69392;SDS011;56582;44.624;20.378;2023-07-13T00:35:48;15.10;;;7.90;;
69392;SDS011;56582;44.624;20.378;2023-07-13T00:38:14;13.13;;;7.55;;
69392;SDS011;56582;44.624;20.378;2023-07-13T00:40:40;14.30;;;7.27;;
69392;SDS011;56582;44.624;20.378;2023-07-13T00:43:27;14.90;;;7.43;;
69392;SDS011;56582;44.624;20.378;2023-07-13T00:48:21;16.80;;;8.23;;
69392;SDS011;56582;44.624;20.378;2023-07-13T00:50:50;13.30;;;7.50;;
69392;SDS011;56582;44.624;20.378;2023-07-13T00:53:19;11.27;;;7.40;;
69392;SDS011;56582;44.624;20.378;2023-07-13T00:55:45;12.00;;;7.35;;
69392;SDS011;56582;44.624;20.378;2023-07-13T00:58:14;14.80;;;8.50;;
69392;SDS011;56582;44.624;20.378;2023-07-13T01:00:40;12.93;;;7.18;;
69392;SDS011;56582;44.624;20.378;2023-07-13T01:03:06;15.80;;;7.60;;
69392;SDS011;56582;44.624;20.378;2023-07-13T01:05:32;13.47;;;7.30;;
69392;SDS011;56582;44.624;20.378;2023-07-13T01:07:59;14.60;;;7.07;;
69392;SDS011;56582;44.624;20.378;2023-07-13T01:10:26;13.00;;;7.20;;
69392;SDS011;56582;44.624;20.378;2023-07-13T01:12:52;12.00;;;7.30;;
69392;SDS011;56582;44.624;20.378;2023-07-13T01:15:39;11.87;;;7.33;;
69392;SDS011;56582;44.624;20.378;2023-07-13T01:18:09;12.88;;;8.07;;
69392;SDS011;56582;44.624;20.378;2023-07-13T01:20:37;12.93;;;7.20;;
69392;SDS011;56582;44.624;20.378;2023-07-13T01:23:04;12.55;;;7.43;;
69392;SDS011;56582;44.624;20.378;2023-07-13T01:25:31;15.20;;;7.85;;
69392;SDS011;56582;44.624;20.378;2023-07-13T01:27:57;13.63;;;7.63;;
69392;SDS011;56582;44.624;20.378;2023-07-13T01:30:23;15.68;;;7.88;;
69392;SDS011;56582;44.624;20.378;2023-07-13T01:32:48;13.87;;;6.80;;
69392;SDS011;56582;44.624;20.378;2023-07-13T01:35:14;11.88;;;7.10;;
69392;SDS011;56582;44.624;20.378;2023-07-13T01:37:41;11.57;;;7.40;;
69392;SDS011;56582;44.624;20.378;2023-07-13T01:40:07;12.30;;;7.13;;
69392;SDS011;56582;44.624;20.378;2023-07-13T01:42:33;15.00;;;6.80;;
69392;SDS011;56582;44.624;20.378;2023-07-13T01:44:59;14.53;;;8.10;;
69392;SDS011;56582;44.624;20.378;2023-07-13T01:47:24;12.73;;;7.57;;
69392;SDS011;56582;44.624;20.378;2023-07-13T01:49:51;13.90;;;7.60;;
69392;SDS011;56582;44.624;20.378;2023-07-13T01:52:17;11.65;;;7.22;;
69392;SDS011;56582;44.624;20.378;2023-07-13T01:54:42;12.93;;;7.13;;
69392;SDS011;56582;44.624;20.378;2023-07-13T01:57:07;14.85;;;7.10;;
69392;SDS011;56582;44.624;20.378;2023-07-13T01:59:33;13.03;;;7.90;;
69392;SDS011;56582;44.624;20.378;2023-07-13T02:01:59;13.80;;;7.25;;
69392;SDS011;56582;44.624;20.378;2023-07-13T02:04:24;14.47;;;7.90;;
69392;SDS011;56582;44.624;20.378;2023-07-13T02:06:50;15.80;;;8.90;;
69392;SDS011;56582;44.624;20.378;2023-07-13T02:09:15;17.97;;;7.73;;
69392;SDS011;56582;44.624;20.378;2023-07-13T02:11:40;10.43;;;7.50;;
69392;SDS011;56582;44.624;20.378;2023-07-13T02:14:06;10.90;;;6.80;;
69392;SDS011;56582;44.624;20.378;2023-07-13T02:16:31;14.33;;;7.23;;
69392;SDS011;56582;44.624;20.378;2023-07-13T02:18:57;11.50;;;7.13;;
69392;SDS011;56582;44.624;20.378;2023-07-13T02:21:22;14.30;;;7.83;;
69392;SDS011;56582;44.624;20.378;2023-07-13T02:23:48;14.68;;;7.97;;
69392;SDS011;56582;44.624;20.378;2023-07-13T02:26:14;14.75;;;7.72;;
69392;SDS011;56582;44.624;20.378;2023-07-13T02:28:40;12.50;;;7.03;;
69392;SDS011;56582;44.624;20.378;2023-07-13T02:31:06;15.43;;;8.17;;
69392;SDS011;56582;44.624;20.378;2023-07-13T02:33:34;12.38;;;6.82;;
69392;SDS011;56582;44.624;20.378;2023-07-13T02:35:59;14.23;;;7.87;;
69392;SDS011;56582;44.624;20.378;2023-07-13T02:38:25;14.47;;;7.83;;
69392;SDS011;56582;44.624;20.378;2023-07-13T02:40:50;14.27;;;7.40;;
69392;SDS011;56582;44.624;20.378;2023-07-13T02:43:16;12.13;;;7.33;;
69392;SDS011;56582;44.624;20.378;2023-07-13T02:45:45;13.20;;;7.93;;
69392;SDS011;56582;44.624;20.378;2023-07-13T02:48:11;17.45;;;7.90;;
69392;SDS011;56582;44.624;20.378;2023-07-13T02:50:37;13.65;;;7.43;;
69392;SDS011;56582;44.624;20.378;2023-07-13T02:53:03;15.13;;;7.63;;
69392;SDS011;56582;44.624;20.378;2023-07-13T02:55:28;14.17;;;7.67;;
69392;SDS011;56582;44.624;20.378;2023-07-13T02:57:54;13.05;;;7.35;;
69392;SDS011;56582;44.624;20.378;2023-07-13T03:00:19;14.63;;;7.80;;
69392;SDS011;56582;44.624;20.378;2023-07-13T03:02:45;13.67;;;7.43;;
69392;SDS011;56582;44.624;20.378;2023-07-13T03:05:10;11.77;;;7.50;;
69392;SDS011;56582;44.624;20.378;2023-07-13T03:07:37;15.65;;;7.43;;
69392;SDS011;56582;44.624;20.378;2023-07-13T03:10:03;12.17;;;7.60;;
69392;SDS011;56582;44.624;20.378;2023-07-13T03:12:29;14.57;;;7.85;;
69392;SDS011;56582;44.624;20.378;2023-07-13T03:14:54;12.00;;;7.37;;
69392;SDS011;56582;44.624;20.378;2023-07-13T03:17:20;14.03;;;7.47;;
69392;SDS011;56582;44.624;20.378;2023-07-13T03:19:45;13.07;;;7.18;;
69392;SDS011;56582;44.624;20.378;2023-07-13T03:22:14;12.20;;;6.93;;
69392;SDS011;56582;44.624;20.378;2023-07-13T03:24:40;13.82;;;7.43;;
69392;SDS011;56582;44.624;20.378;2023-07-13T03:27:06;13.17;;;8.43;;
69392;SDS011;56582;44.624;20.378;2023-07-13T03:29:32;12.07;;;7.13;;
69392;SDS011;56582;44.624;20.378;2023-07-13T03:31:57;13.57;;;7.00;;
69392;SDS011;56582;44.624;20.378;2023-07-13T03:34:23;11.63;;;7.32;;
69392;SDS011;56582;44.624;20.378;2023-07-13T03:36:48;10.67;;;6.83;;
69392;SDS011;56582;44.624;20.378;2023-07-13T03:39:14;10.27;;;6.63;;
69392;SDS011;56582;44.624;20.378;2023-07-13T03:41:39;12.23;;;7.70;;
69392;SDS011;56582;44.624;20.378;2023-07-13T03:44:05;11.40;;;7.13;;
69392;SDS011;56582;44.624;20.378;2023-07-13T03:46:31;10.10;;;6.35;;
69392;SDS011;56582;44.624;20.378;2023-07-13T03:48:56;12.27;;;6.80;;
69392;SDS011;56582;44.624;20.378;2023-07-13T03:51:22;11.63;;;7.30;;
69392;SDS011;56582;44.624;20.378;2023-07-13T03:53:48;10.93;;;7.00;;
69392;SDS011;56582;44.624;20.378;2023-07-13T03:56:14;9.63;;;6.83;;
69392;SDS011;56582;44.624;20.378;2023-07-13T03:58:41;14.18;;;7.18;;
69392;SDS011;56582;44.624;20.378;2023-07-13T04:01:08;12.10;;;6.53;;
69392;SDS011;56582;44.624;20.378;2023-07-13T04:03:35;10.25;;;7.07;;
69392;SDS011;56582;44.624;20.378;2023-07-13T04:06:02;11.05;;;6.25;;
69392;SDS011;56582;44.624;20.378;2023-07-13T04:08:29;10.77;;;8.20;;
69392;SDS011;56582;44.624;20.378;2023-07-13T04:10:56;11.35;;;6.20;;
69392;SDS011;56582;44.624;20.378;2023-07-13T04:13:22;12.77;;;6.60;;
69392;SDS011;56582;44.624;20.378;2023-07-13T04:15:48;10.55;;;6.45;;
69392;SDS011;56582;44.624;20.378;2023-07-13T04:18:13;9.63;;;6.43;;
69392;SDS011;56582;44.624;20.378;2023-07-13T04:20:39;12.03;;;6.50;;
69392;SDS011;56582;44.624;20.378;2023-07-13T04:23:04;14.40;;;7.33;;
69392;SDS011;56582;44.624;20.378;2023-07-13T04:25:30;11.32;;;6.55;;
69392;SDS011;56582;44.624;20.378;2023-07-13T04:27:55;13.67;;;6.63;;
69392;SDS011;56582;44.624;20.378;2023-07-13T04:30:21;10.90;;;6.20;;
69392;SDS011;56582;44.624;20.378;2023-07-13T04:32:46;11.48;;;6.38;;
69392;SDS011;56582;44.624;20.378;2023-07-13T04:35:12;10.60;;;7.47;;
69392;SDS011;56582;44.624;20.378;2023-07-13T04:37:39;12.00;;;6.55;;
69392;SDS011;56582;44.624;20.378;2023-07-13T04:40:05;12.70;;;6.78;;
69392;SDS011;56582;44.624;20.378;2023-07-13T04:42:31;11.55;;;7.38;;
69392;SDS011;56582;44.624;20.378;2023-07-13T04:44:56;11.30;;;6.90;;
69392;SDS011;56582;44.624;20.378;2023-07-13T04:47:21;14.70;;;7.50;;
69392;SDS011;56582;44.624;20.378;2023-07-13T04:49:47;12.00;;;7.00;;
69392;SDS011;56582;44.624;20.378;2023-07-13T04:52:12;11.07;;;6.78;;
69392;SDS011;56582;44.624;20.378;2023-07-13T04:54:38;10.23;;;6.60;;
69392;SDS011;56582;44.624;20.378;2023-07-13T04:57:04;8.23;;;6.37;;
69392;SDS011;56582;44.624;20.378;2023-07-13T04:59:33;10.18;;;6.30;;
69392;SDS011;56582;44.624;20.378;2023-07-13T05:01:59;10.77;;;6.60;;
69392;SDS011;56582;44.624;20.378;2023-07-13T05:04:24;10.00;;;7.00;;
69392;SDS011;56582;44.624;20.378;2023-07-13T05:06:50;13.30;;;6.97;;
69392;SDS011;56582;44.624;20.378;2023-07-13T05:09:15;10.52;;;6.32;;
69392;SDS011;56582;44.624;20.378;2023-07-13T05:11:42;13.43;;;6.50;;
69392;SDS011;56582;44.624;20.378;2023-07-13T05:14:08;9.18;;;6.72;;
69392;SDS011;56582;44.624;20.378;2023-07-13T05:16:34;10.98;;;6.82;;
69392;SDS011;56582;44.624;20.378;2023-07-13T05:19:00;9.13;;;6.00;;
69392;SDS011;56582;44.624;20.378;2023-07-13T05:21:26;11.87;;;6.80;;
69392;SDS011;56582;44.624;20.378;2023-07-13T05:23:51;12.07;;;7.57;;
69392;SDS011;56582;44.624;20.378;2023-07-13T05:26:20;10.57;;;6.50;;
69392;SDS011;56582;44.624;20.378;2023-07-13T05:28:46;9.65;;;6.80;;
69392;SDS011;56582;44.624;20.378;2023-07-13T05:31:11;9.35;;;6.78;;
69392;SDS011;56582;44.624;20.378;2023-07-13T05:33:37;9.43;;;6.67;;
69392;SDS011;56582;44.624;20.378;2023-07-13T05:36:02;9.47;;;6.07;;
69392;SDS011;56582;44.624;20.378;2023-07-13T05:38:28;11.17;;;6.40;;
69392;SDS011;56582;44.624;20.378;2023-07-13T05:40:54;9.40;;;5.82;;
69392;SDS011;56582;44.624;20.378;2023-07-13T05:43:21;8.45;;;5.97;;
69392;SDS011;56582;44.624;20.378;2023-07-13T05:45:47;11.32;;;6.57;;
69392;SDS011;56582;44.624;20.378;2023-07-13T05:48:13;10.23;;;6.27;;
69392;SDS011;56582;44.624;20.378;2023-07-13T05:50:38;9.82;;;6.38;;
69392;SDS011;56582;44.624;20.378;2023-07-13T05:53:04;9.70;;;6.07;;
69392;SDS011;56582;44.624;20.378;2023-07-13T05:55:30;8.63;;;5.73;;
69392;SDS011;56582;44.624;20.378;2023-07-13T05:57:56;8.82;;;5.85;;
69392;SDS011;56582;44.624;20.378;2023-07-13T06:00:23;8.52;;;5.88;;
69392;SDS011;56582;44.624;20.378;2023-07-13T06:02:49;10.77;;;6.47;;
69392;SDS011;56582;44.624;20.378;2023-07-13T06:05:15;9.73;;;6.10;;
69392;SDS011;56582;44.624;20.378;2023-07-13T06:07:41;7.80;;;5.63;;
69392;SDS011;56582;44.624;20.378;2023-07-13T06:10:06;9.50;;;5.40;;
69392;SDS011;56582;44.624;20.378;2023-07-13T06:12:32;12.88;;;6.22;;
69392;SDS011;56582;44.624;20.378;2023-07-13T06:14:57;8.87;;;5.73;;
69392;SDS011;56582;44.624;20.378;2023-07-13T06:17:23;9.83;;;6.17;;
69392;SDS011;56582;44.624;20.378;2023-07-13T06:19:48;10.38;;;6.18;;
69392;SDS011;56582;44.624;20.378;2023-07-13T06:22:14;10.60;;;6.43;;
69392;SDS011;56582;44.624;20.378;2023-07-13T06:24:39;9.97;;;6.13;;
69392;SDS011;56582;44.624;20.378;2023-07-13T06:27:05;10.23;;;6.47;;
69392;SDS011;56582;44.624;20.378;2023-07-13T06:29:30;10.43;;;6.28;;
69392;SDS011;56582;44.624;20.378;2023-07-13T06:31:56;9.47;;;6.43;;
69392;SDS011;56582;44.624;20.378;2023-07-13T06:34:22;10.15;;;5.90;;
69392;SDS011;56582;44.624;20.378;2023-07-13T06:36:47;8.93;;;5.77;;
69392;SDS011;56582;44.624;20.378;2023-07-13T06:39:13;10.03;;;5.93;;
69392;SDS011;56582;44.624;20.378;2023-07-13T06:41:38;9.60;;;7.18;;
69392;SDS011;56582;44.624;20.378;2023-07-13T06:44:04;10.07;;;6.80;;
69392;SDS011;56582;44.624;20.378;2023-07-13T06:46:29;10.32;;;6.60;;
69392;SDS011;56582;44.624;20.378;2023-07-13T06:48:55;10.43;;;7.40;;
69392;SDS011;56582;44.624;20.378;2023-07-13T06:51:21;9.57;;;6.40;;
69392;SDS011;56582;44.624;20.378;2023-07-13T06:53:47;9.27;;;6.00;;
69392;SDS011;56582;44.624;20.378;2023-07-13T06:56:12;11.00;;;6.00;;
69392;SDS011;56582;44.624;20.378;2023-07-13T06:58:38;9.77;;;6.28;;
69392;SDS011;56582;44.624;20.378;2023-07-13T07:01:04;12.13;;;6.43;;
69392;SDS011;56582;44.624;20.378;2023-07-13T07:03:29;9.45;;;6.13;;
69392;SDS011;56582;44.624;20.378;2023-07-13T07:06:03;9.03;;;5.57;;
69392;SDS011;56582;44.624;20.378;2023-07-13T07:08:37;8.65;;;5.90;;
69392;SDS011;56582;44.624;20.378;2023-07-13T07:11:03;10.63;;;5.87;;
69392;SDS011;56582;44.624;20.378;2023-07-13T07:13:28;10.43;;;6.07;;
69392;SDS011;56582;44.624;20.378;2023-07-13T07:15:55;9.45;;;6.15;;
69392;SDS011;56582;44.624;20.378;2023-07-13T07:18:20;8.50;;;5.97;;
69392;SDS011;56582;44.624;20.378;2023-07-13T07:20:46;10.33;;;6.13;;
69392;SDS011;56582;44.624;20.378;2023-07-13T07:23:11;8.82;;;5.60;;
69392;SDS011;56582;44.624;20.378;2023-07-13T07:25:37;14.07;;;6.20;;
69392;SDS011;56582;44.624;20.378;2023-07-13T07:28:07;9.32;;;6.13;;
69392;SDS011;56582;44.624;20.378;2023-07-13T07:30:33;8.60;;;5.57;;
69392;SDS011;56582;44.624;20.378;2023-07-13T07:32:58;10.48;;;6.18;;
69392;SDS011;56582;44.624;20.378;2023-07-13T07:35:24;9.27;;;5.70;;
69392;SDS011;56582;44.624;20.378;2023-07-13T07:37:49;13.70;;;6.17;;
69392;SDS011;56582;44.624;20.378;2023-07-13T07:40:15;9.20;;;5.50;;
69392;SDS011;56582;44.624;20.378;2023-07-13T07:42:40;9.03;;;5.43;;
69392;SDS011;56582;44.624;20.378;2023-07-13T07:45:06;10.17;;;5.43;;
69392;SDS011;56582;44.624;20.378;2023-07-13T07:47:32;8.80;;;5.88;;
69392;SDS011;56582;44.624;20.378;2023-07-13T07:49:57;11.07;;;5.83;;
69392;SDS011;56582;44.624;20.378;2023-07-13T07:52:22;9.73;;;5.60;;
69392;SDS011;56582;44.624;20.378;2023-07-13T07:54:48;10.10;;;5.77;;
69392;SDS011;56582;44.624;20.378;2023-07-13T07:57:13;8.53;;;6.27;;
69392;SDS011;56582;44.624;20.378;2023-07-13T07:59:39;9.47;;;5.63;;
69392;SDS011;56582;44.624;20.378;2023-07-13T08:02:04;11.70;;;5.60;;
69392;SDS011;56582;44.624;20.378;2023-07-13T08:04:30;8.52;;;5.53;;
69392;SDS011;56582;44.624;20.378;2023-07-13T08:06:55;12.10;;;6.30;;
69392;SDS011;56582;44.624;20.378;2023-07-13T08:09:24;8.60;;;5.85;;
69392;SDS011;56582;44.624;20.378;2023-07-13T08:11:49;8.70;;;5.90;;
69392;SDS011;56582;44.624;20.378;2023-07-13T08:14:16;9.27;;;6.10;;
69392;SDS011;56582;44.624;20.378;2023-07-13T08:16:41;10.60;;;5.77;;
69392;SDS011;56582;44.624;20.378;2023-07-13T08:19:07;11.45;;;5.95;;
69392;SDS011;56582;44.624;20.378;2023-07-13T08:21:32;9.20;;;5.30;;
69392;SDS011;56582;44.624;20.378;2023-07-13T08:23:57;11.73;;;6.77;;
69392;SDS011;56582;44.624;20.378;2023-07-13T08:26:23;9.03;;;5.20;;
69392;SDS011;56582;44.624;20.378;2023-07-13T08:28:48;11.23;;;5.37;;
69392;SDS011;56582;44.624;20.378;2023-07-13T08:31:14;12.53;;;5.57;;
69392;SDS011;56582;44.624;20.378;2023-07-13T08:33:40;11.23;;;5.27;;
69392;SDS011;56582;44.624;20.378;2023-07-13T08:36:06;9.60;;;5.45;;
69392;SDS011;56582;44.624;20.378;2023-07-13T08:38:32;13.55;;;5.60;;
69392;SDS011;56582;44.624;20.378;2023-07-13T08:40:58;8.87;;;5.23;;
69392;SDS011;56582;44.624;20.378;2023-07-13T08:43:29;10.27;;;5.53;;
69392;SDS011;56582;44.624;20.378;2023-07-13T08:46:02;11.38;;;7.55;;
69392;SDS011;56582;44.624;20.378;2023-07-13T08:48:48;9.70;;;6.20;;
69392;SDS011;56582;44.624;20.378;2023-07-13T08:51:53;11.23;;;7.33;;
69392;SDS011;56582;44.624;20.378;2023-07-13T08:56:43;12.93;;;7.20;;
69392;SDS011;56582;44.624;20.378;2023-07-13T08:59:14;11.35;;;7.28;;
69392;SDS011;56582;44.624;20.378;2023-07-13T09:04:17;11.03;;;6.90;;
69392;SDS011;56582;44.624;20.378;2023-07-13T09:07:01;10.73;;;6.50;;
69392;SDS011;56582;44.624;20.378;2023-07-13T09:09:37;9.80;;;6.18;;
69392;SDS011;56582;44.624;20.378;2023-07-13T09:15:03;10.10;;;6.05;;
69392;SDS011;56582;44.624;20.378;2023-07-13T09:17:44;11.00;;;6.27;;
69392;SDS011;56582;44.624;20.378;2023-07-13T09:20:20;13.27;;;5.68;;
69392;SDS011;56582;44.624;20.378;2023-07-13T09:22:50;9.57;;;5.47;;
69392;SDS011;56582;44.624;20.378;2023-07-13T09:28:10;9.67;;;5.90;;
69392;SDS011;56582;44.624;20.378;2023-07-13T09:30:45;10.65;;;6.43;;
69392;SDS011;56582;44.624;20.378;2023-07-13T09:33:18;13.02;;;5.55;;
69392;SDS011;56582;44.624;20.378;2023-07-13T09:35:44;10.60;;;5.80;;
69392;SDS011;56582;44.624;20.378;2023-07-13T09:40:46;10.88;;;6.32;;
69392;SDS011;56582;44.624;20.378;2023-07-13T09:43:21;9.23;;;5.85;;
69392;SDS011;56582;44.624;20.378;2023-07-13T09:45:47;10.27;;;6.03;;
69392;SDS011;56582;44.624;20.378;2023-07-13T09:48:14;11.23;;;6.20;;
69392;SDS011;56582;44.624;20.378;2023-07-13T09:50:41;11.37;;;5.80;;
69392;SDS011;56582;44.624;20.378;2023-07-13T09:53:18;11.55;;;6.13;;
69392;SDS011;56582;44.624;20.378;2023-07-13T09:55:45;10.57;;;5.80;;
69392;SDS011;56582;44.624;20.378;2023-07-13T09:58:19;8.77;;;5.60;;
69392;SDS011;56582;44.624;20.378;2023-07-13T10:00:58;10.57;;;5.97;;
69392;SDS011;56582;44.624;20.378;2023-07-13T10:03:26;14.77;;;6.47;;
69392;SDS011;56582;44.624;20.378;2023-07-13T10:05:57;12.65;;;6.35;;
69392;SDS011;56582;44.624;20.378;2023-07-13T10:08:35;9.45;;;5.93;;
69392;SDS011;56582;44.624;20.378;2023-07-13T10:11:01;10.77;;;6.07;;
69392;SDS011;56582;44.624;20.378;2023-07-13T10:13:44;9.47;;;5.80;;
69392;SDS011;56582;44.624;20.378;2023-07-13T10:16:34;10.93;;;6.00;;
69392;SDS011;56582;44.624;20.378;2023-07-13T10:19:02;10.63;;;5.63;;
69392;SDS011;56582;44.624;20.378;2023-07-13T10:21:37;9.48;;;5.72;;
69392;SDS011;56582;44.624;20.378;2023-07-13T10:24:16;11.23;;;5.90;;
69392;SDS011;56582;44.624;20.378;2023-07-13T10:27:09;8.23;;;5.73;;
69392;SDS011;56582;44.624;20.378;2023-07-13T10:32:17;10.68;;;6.07;;
69392;SDS011;56582;44.624;20.378;2023-07-13T10:34:46;10.82;;;5.70;;
69392;SDS011;56582;44.624;20.378;2023-07-13T10:37:16;11.82;;;5.88;;
69392;SDS011;56582;44.624;20.378;2023-07-13T10:39:50;10.57;;;5.33;;
69392;SDS011;56582;44.624;20.378;2023-07-13T10:42:19;11.02;;;5.45;;
69392;SDS011;56582;44.624;20.378;2023-07-13T10:45:16;10.07;;;5.72;;
69392;SDS011;56582;44.624;20.378;2023-07-13T10:47:44;9.93;;;5.65;;
69392;SDS011;56582;44.624;20.378;2023-07-13T10:50:29;10.43;;;5.82;;
69392;SDS011;56582;44.624;20.378;2023-07-13T10:53:01;9.90;;;5.17;;
69392;SDS011;56582;44.624;20.378;2023-07-13T11:21:27;8.70;;;5.43;;
69392;SDS011;56582;44.624;20.378;2023-07-13T11:24:15;12.43;;;5.68;;
69392;SDS011;56582;44.624;20.378;2023-07-13T11:26:44;9.82;;;5.50;;
69392;SDS011;56582;44.624;20.378;2023-07-13T11:31:42;15.70;;;6.30;;
69392;SDS011;56582;44.624;20.378;2023-07-13T11:34:13;8.80;;;5.90;;
69392;SDS011;56582;44.624;20.378;2023-07-13T11:36:43;9.98;;;5.88;;
69392;SDS011;56582;44.624;20.378;2023-07-13T11:41:56;9.15;;;6.03;;
69392;SDS011;56582;44.624;20.378;2023-07-13T11:44:24;9.20;;;5.90;;
69392;SDS011;56582;44.624;20.378;2023-07-13T11:46:55;9.52;;;5.50;;
69392;SDS011;56582;44.624;20.378;2023-07-13T11:49:23;10.90;;;5.50;;
69392;SDS011;56582;44.624;20.378;2023-07-13T11:51:52;8.90;;;5.27;;
69392;SDS011;56582;44.624;20.378;2023-07-13T11:56:49;10.93;;;5.60;;
69392;SDS011;56582;44.624;20.378;2023-07-13T11:59:14;10.83;;;5.63;;
69392;SDS011;56582;44.624;20.378;2023-07-13T12:01:46;9.87;;;6.03;;
69392;SDS011;56582;44.624;20.378;2023-07-13T12:04:20;11.05;;;6.30;;
69392;SDS011;56582;44.624;20.378;2023-07-13T12:06:55;9.40;;;5.82;;
69392;SDS011;56582;44.624;20.378;2023-07-13T12:09:29;10.68;;;6.55;;
69392;SDS011;56582;44.624;20.378;2023-07-13T12:11:56;7.90;;;5.63;;
69392;SDS011;56582;44.624;20.378;2023-07-13T12:14:22;10.18;;;5.88;;
69392;SDS011;56582;44.624;20.378;2023-07-13T12:16:50;9.52;;;5.85;;
69392;SDS011;56582;44.624;20.378;2023-07-13T12:19:23;9.60;;;5.28;;
69392;SDS011;56582;44.624;20.378;2023-07-13T12:21:52;9.77;;;5.60;;
69392;SDS011;56582;44.624;20.378;2023-07-13T12:24:21;9.18;;;5.60;;
69392;SDS011;56582;44.624;20.378;2023-07-13T12:27:05;13.93;;;5.70;;
69392;SDS011;56582;44.624;20.378;2023-07-13T12:29:32;10.13;;;5.75;;
69392;SDS011;56582;44.624;20.378;2023-07-13T12:31:58;9.38;;;5.75;;
69392;SDS011;56582;44.624;20.378;2023-07-13T12:34:25;11.00;;;5.37;;
69392;SDS011;56582;44.624;20.378;2023-07-13T12:36:52;9.32;;;5.60;;
69392;SDS011;56582;44.624;20.378;2023-07-13T12:39:24;8.73;;;5.68;;
69392;SDS011;56582;44.624;20.378;2023-07-13T12:41:54;9.98;;;5.57;;
69392;SDS011;56582;44.624;20.378;2023-07-13T12:44:53;10.05;;;5.95;;
69392;SDS011;56582;44.624;20.378;2023-07-13T12:47:25;9.90;;;5.50;;
69392;SDS011;56582;44.624;20.378;2023-07-13T12:49:55;10.40;;;5.60;;
69392;SDS011;56582;44.624;20.378;2023-07-13T12:52:31;12.35;;;5.85;;
69392;SDS011;56582;44.624;20.378;2023-07-13T12:55:04;7.40;;;5.50;;
69392;SDS011;56582;44.624;20.378;2023-07-13T12:57:38;9.55;;;5.82;;
69392;SDS011;56582;44.624;20.378;2023-07-13T13:00:09;9.70;;;5.80;;
69392;SDS011;56582;44.624;20.378;2023-07-13T13:02:46;8.82;;;5.78;;
69392;SDS011;56582;44.624;20.378;2023-07-13T13:05:15;8.85;;;5.35;;
69392;SDS011;56582;44.624;20.378;2023-07-13T13:07:41;9.73;;;5.80;;
69392;SDS011;56582;44.624;20.378;2023-07-13T13:10:13;8.65;;;5.70;;
69392;SDS011;56582;44.624;20.378;2023-07-13T13:12:39;9.88;;;6.68;;
69392;SDS011;56582;44.624;20.378;2023-07-13T13:15:09;9.23;;;5.25;;
69392;SDS011;56582;44.624;20.378;2023-07-13T13:17:36;9.80;;;5.80;;
69392;SDS011;56582;44.624;20.378;2023-07-13T13:20:11;8.97;;;5.50;;
69392;SDS011;56582;44.624;20.378;2023-07-13T13:22:42;10.43;;;5.95;;
69392;SDS011;56582;44.624;20.378;2023-07-13T13:25:11;10.48;;;6.00;;
69392;SDS011;56582;44.624;20.378;2023-07-13T13:27:38;13.23;;;6.20;;
69392;SDS011;56582;44.624;20.378;2023-07-13T13:30:10;8.93;;;6.00;;
69392;SDS011;56582;44.624;20.378;2023-07-13T13:32:38;9.65;;;5.72;;
69392;SDS011;56582;44.624;20.378;2023-07-13T13:35:05;9.35;;;6.20;;
69392;SDS011;56582;44.624;20.378;2023-07-13T13:37:33;10.68;;;6.03;;
69392;SDS011;56582;44.624;20.378;2023-07-13T13:39:58;11.50;;;5.87;;
69392;SDS011;56582;44.624;20.378;2023-07-13T13:42:24;11.00;;;5.30;;
69392;SDS011;56582;44.624;20.378;2023-07-13T13:44:51;10.70;;;6.07;;
69392;SDS011;56582;44.624;20.378;2023-07-13T13:47:21;8.87;;;5.50;;
69392;SDS011;56582;44.624;20.378;2023-07-13T13:49:48;9.52;;;5.70;;
69392;SDS011;56582;44.624;20.378;2023-07-13T13:52:13;10.13;;;5.73;;
69392;SDS011;56582;44.624;20.378;2023-07-13T13:54:39;7.40;;;4.80;;
69392;SDS011;56582;44.624;20.378;2023-07-13T13:57:04;10.05;;;5.72;;
69392;SDS011;56582;44.624;20.378;2023-07-13T13:59:30;9.33;;;6.03;;
69392;SDS011;56582;44.624;20.378;2023-07-13T14:01:57;9.95;;;6.00;;
69392;SDS011;56582;44.624;20.378;2023-07-13T14:04:25;10.40;;;5.70;;
69392;SDS011;56582;44.624;20.378;2023-07-13T14:06:50;10.60;;;6.03;;
69392;SDS011;56582;44.624;20.378;2023-07-13T14:09:17;10.52;;;6.30;;
69392;SDS011;56582;44.624;20.378;2023-07-13T14:11:44;9.27;;;5.93;;
69392;SDS011;56582;44.624;20.378;2023-07-13T14:14:12;9.98;;;6.15;;
69392;SDS011;56582;44.624;20.378;2023-07-13T14:16:41;9.88;;;5.75;;
69392;SDS011;56582;44.624;20.378;2023-07-13T14:19:08;11.52;;;6.35;;
69392;SDS011;56582;44.624;20.378;2023-07-13T14:21:36;10.90;;;6.28;;
69392;SDS011;56582;44.624;20.378;2023-07-13T14:24:02;12.17;;;6.53;;
69392;SDS011;56582;44.624;20.378;2023-07-13T14:26:29;10.50;;;7.32;;
69392;SDS011;56582;44.624;20.378;2023-07-13T14:29:00;10.38;;;6.80;;
69392;SDS011;56582;44.624;20.378;2023-07-13T14:31:26;13.70;;;6.97;;
69392;SDS011;56582;44.624;20.378;2023-07-13T14:33:54;12.93;;;6.72;;
69392;SDS011;56582;44.624;20.378;2023-07-13T14:38:54;11.90;;;7.35;;
69392;SDS011;56582;44.624;20.378;2023-07-13T14:41:21;11.88;;;7.82;;
69392;SDS011;56582;44.624;20.378;2023-07-13T14:43:46;13.83;;;7.63;;
69392;SDS011;56582;44.624;20.378;2023-07-13T14:46:46;13.23;;;7.82;;
69392;SDS011;56582;44.624;20.378;2023-07-13T14:49:06;20.13;;;7.50;;
69392;SDS011;56582;44.624;20.378;2023-07-13T14:51:40;12.65;;;7.97;;
69392;SDS011;56582;44.624;20.378;2023-07-13T14:54:05;12.83;;;7.87;;
69392;SDS011;56582;44.624;20.378;2023-07-13T14:56:33;12.70;;;8.18;;
69392;SDS011;56582;44.624;20.378;2023-07-13T14:58:59;15.40;;;8.63;;
69392;SDS011;56582;44.624;20.378;2023-07-13T15:01:25;12.75;;;8.40;;
69392;SDS011;56582;44.624;20.378;2023-07-13T15:03:51;14.27;;;8.77;;
69392;SDS011;56582;44.624;20.378;2023-07-13T15:06:19;12.90;;;8.50;;
69392;SDS011;56582;44.624;20.378;2023-07-13T15:08:45;11.63;;;8.63;;
69392;SDS011;56582;44.624;20.378;2023-07-13T15:11:11;13.60;;;9.68;;
69392;SDS011;56582;44.624;20.378;2023-07-13T15:13:38;13.98;;;9.07;;
69392;SDS011;56582;44.624;20.378;2023-07-13T15:16:05;13.07;;;8.50;;
69392;SDS011;56582;44.624;20.378;2023-07-13T15:18:39;13.53;;;8.37;;
69392;SDS011;56582;44.624;20.378;2023-07-13T15:21:07;12.38;;;8.95;;
69392;SDS011;56582;44.624;20.378;2023-07-13T15:23:34;14.50;;;8.82;;
69392;SDS011;56582;44.624;20.378;2023-07-13T15:26:00;14.93;;;8.47;;